sensor_id;sensor_type;location;lat;lon;timestamp;P1;durP1;ratioP1;P2;durP2;ratioP2
12687;SDS011;6408;59.388;17.798;2024-01-30T00:01:32;19.40;;;8.37;;
12687;SDS011;6408;59.388;17.798;2024-01-30T00:03:59;19.23;;;8.33;;
12687;SDS011;6408;59.388;17.798;2024-01-30T00:06:26;18.83;;;7.63;;
12687;SDS011;6408;59.388;17.798;2024-01-30T00:08:53;17.10;;;8.03;;
12687;SDS011;6408;59.388;17.798;2024-01-30T00:11:20;14.07;;;7.70;;
12687;SDS011;6408;59.388;17.798;2024-01-30T00:13:47;18.03;;;8.07;;
12687;SDS011;6408;59.388;17.798;2024-01-30T00:16:25;20.57;;;9.80;;
12687;SDS011;6408;59.388;17.798;2024-01-30T00:18:54;30.37;;;11.97;;
12687;SDS011;6408;59.388;17.798;2024-01-30T00:21:21;29.50;;;9.80;;
12687;SDS011;6408;59.388;17.798;2024-01-30T00:23:49;22.40;;;9.73;;
12687;SDS011;6408;59.388;17.798;2024-01-30T00:26:16;19.53;;;8.60;;
12687;SDS011;6408;59.388;17.798;2024-01-30T00:28:43;21.30;;;8.77;;
12687;SDS011;6408;59.388;17.798;2024-01-30T00:31:10;26.73;;;10.17;;
12687;SDS011;6408;59.388;17.798;2024-01-30T00:33:39;31.67;;;10.20;;
12687;SDS011;6408;59.388;17.798;2024-01-30T00:36:07;24.23;;;9.23;;
12687;SDS011;6408;59.388;17.798;2024-01-30T00:38:35;25.07;;;8.87;;
12687;SDS011;6408;59.388;17.798;2024-01-30T00:41:02;26.53;;;10.33;;
12687;SDS011;6408;59.388;17.798;2024-01-30T00:43:30;65.23;;;10.77;;
12687;SDS011;6408;59.388;17.798;2024-01-30T00:45:57;40.20;;;9.87;;
12687;SDS011;6408;59.388;17.798;2024-01-30T00:48:24;30.43;;;9.60;;
12687;SDS011;6408;59.388;17.798;2024-01-30T00:50:53;42.83;;;9.37;;
12687;SDS011;6408;59.388;17.798;2024-01-30T00:53:20;59.70;;;10.40;;
12687;SDS011;6408;59.388;17.798;2024-01-30T00:55:47;78.30;;;10.90;;
12687;SDS011;6408;59.388;17.798;2024-01-30T00:58:14;31.20;;;9.07;;
12687;SDS011;6408;59.388;17.798;2024-01-30T01:00:41;35.20;;;9.33;;
12687;SDS011;6408;59.388;17.798;2024-01-30T01:03:08;70.60;;;9.83;;
12687;SDS011;6408;59.388;17.798;2024-01-30T01:05:35;84.20;;;12.80;;
12687;SDS011;6408;59.388;17.798;2024-01-30T01:08:04;29.70;;;8.30;;
12687;SDS011;6408;59.388;17.798;2024-01-30T01:10:32;57.87;;;10.17;;
12687;SDS011;6408;59.388;17.798;2024-01-30T01:12:59;22.83;;;8.17;;
12687;SDS011;6408;59.388;17.798;2024-01-30T01:15:26;78.93;;;11.67;;
12687;SDS011;6408;59.388;17.798;2024-01-30T01:17:53;66.30;;;8.77;;
12687;SDS011;6408;59.388;17.798;2024-01-30T01:20:20;44.13;;;9.50;;
12687;SDS011;6408;59.388;17.798;2024-01-30T01:22:47;38.90;;;9.70;;
12687;SDS011;6408;59.388;17.798;2024-01-30T01:25:16;50.77;;;8.40;;
12687;SDS011;6408;59.388;17.798;2024-01-30T01:27:43;52.63;;;8.70;;
12687;SDS011;6408;59.388;17.798;2024-01-30T01:30:16;62.30;;;10.27;;
12687;SDS011;6408;59.388;17.798;2024-01-30T01:32:46;64.57;;;9.53;;
12687;SDS011;6408;59.388;17.798;2024-01-30T01:35:20;55.03;;;8.20;;
12687;SDS011;6408;59.388;17.798;2024-01-30T01:37:47;44.43;;;9.30;;
12687;SDS011;6408;59.388;17.798;2024-01-30T01:40:22;40.40;;;8.53;;
12687;SDS011;6408;59.388;17.798;2024-01-30T01:42:49;34.77;;;8.77;;
12687;SDS011;6408;59.388;17.798;2024-01-30T01:45:17;58.33;;;10.17;;
12687;SDS011;6408;59.388;17.798;2024-01-30T01:47:45;30.50;;;9.40;;
12687;SDS011;6408;59.388;17.798;2024-01-30T01:50:15;62.13;;;8.60;;
12687;SDS011;6408;59.388;17.798;2024-01-30T01:52:43;37.10;;;7.33;;
12687;SDS011;6408;59.388;17.798;2024-01-30T01:55:13;27.27;;;7.07;;
12687;SDS011;6408;59.388;17.798;2024-01-30T01:57:44;29.93;;;6.00;;
12687;SDS011;6408;59.388;17.798;2024-01-30T02:00:11;45.50;;;7.47;;
12687;SDS011;6408;59.388;17.798;2024-01-30T02:02:39;40.07;;;7.53;;
12687;SDS011;6408;59.388;17.798;2024-01-30T02:05:08;40.77;;;6.83;;
12687;SDS011;6408;59.388;17.798;2024-01-30T02:07:35;36.03;;;7.57;;
12687;SDS011;6408;59.388;17.798;2024-01-30T02:10:02;23.17;;;6.03;;
12687;SDS011;6408;59.388;17.798;2024-01-30T02:12:30;32.30;;;6.20;;
12687;SDS011;6408;59.388;17.798;2024-01-30T02:14:58;27.23;;;7.57;;
12687;SDS011;6408;59.388;17.798;2024-01-30T02:17:25;31.37;;;8.57;;
12687;SDS011;6408;59.388;17.798;2024-01-30T02:19:52;41.77;;;8.27;;
12687;SDS011;6408;59.388;17.798;2024-01-30T02:22:21;58.67;;;8.83;;
12687;SDS011;6408;59.388;17.798;2024-01-30T02:24:49;26.13;;;6.67;;
12687;SDS011;6408;59.388;17.798;2024-01-30T02:27:16;20.27;;;6.27;;
12687;SDS011;6408;59.388;17.798;2024-01-30T02:29:43;23.73;;;6.23;;
12687;SDS011;6408;59.388;17.798;2024-01-30T02:32:10;14.60;;;5.80;;
12687;SDS011;6408;59.388;17.798;2024-01-30T02:34:37;22.37;;;7.10;;
12687;SDS011;6408;59.388;17.798;2024-01-30T02:37:04;21.40;;;6.50;;
12687;SDS011;6408;59.388;17.798;2024-01-30T02:39:32;23.17;;;6.17;;
12687;SDS011;6408;59.388;17.798;2024-01-30T02:41:59;30.83;;;6.83;;
12687;SDS011;6408;59.388;17.798;2024-01-30T02:44:26;26.23;;;6.10;;
12687;SDS011;6408;59.388;17.798;2024-01-30T02:46:53;20.70;;;6.37;;
12687;SDS011;6408;59.388;17.798;2024-01-30T02:49:20;58.37;;;7.50;;
12687;SDS011;6408;59.388;17.798;2024-01-30T02:51:47;23.53;;;6.77;;
12687;SDS011;6408;59.388;17.798;2024-01-30T02:54:14;21.47;;;6.97;;
12687;SDS011;6408;59.388;17.798;2024-01-30T02:56:43;25.80;;;6.20;;
12687;SDS011;6408;59.388;17.798;2024-01-30T02:59:10;32.00;;;6.00;;
12687;SDS011;6408;59.388;17.798;2024-01-30T03:01:44;28.87;;;5.20;;
12687;SDS011;6408;59.388;17.798;2024-01-30T03:04:11;37.53;;;6.37;;
12687;SDS011;6408;59.388;17.798;2024-01-30T03:06:38;21.00;;;5.60;;
12687;SDS011;6408;59.388;17.798;2024-01-30T03:09:05;37.07;;;7.10;;
12687;SDS011;6408;59.388;17.798;2024-01-30T03:11:32;31.03;;;5.87;;
12687;SDS011;6408;59.388;17.798;2024-01-30T03:14:00;44.43;;;5.40;;
12687;SDS011;6408;59.388;17.798;2024-01-30T03:16:29;30.40;;;5.47;;
12687;SDS011;6408;59.388;17.798;2024-01-30T03:18:56;46.17;;;5.93;;
12687;SDS011;6408;59.388;17.798;2024-01-30T03:21:27;21.20;;;5.23;;
12687;SDS011;6408;59.388;17.798;2024-01-30T03:23:54;22.07;;;5.57;;
12687;SDS011;6408;59.388;17.798;2024-01-30T03:26:21;32.93;;;6.60;;
12687;SDS011;6408;59.388;17.798;2024-01-30T03:28:48;34.67;;;5.60;;
12687;SDS011;6408;59.388;17.798;2024-01-30T03:31:16;43.77;;;5.97;;
12687;SDS011;6408;59.388;17.798;2024-01-30T03:33:44;60.67;;;6.90;;
12687;SDS011;6408;59.388;17.798;2024-01-30T03:36:11;46.50;;;6.47;;
12687;SDS011;6408;59.388;17.798;2024-01-30T03:38:38;25.60;;;5.27;;
12687;SDS011;6408;59.388;17.798;2024-01-30T03:41:07;48.70;;;5.93;;
12687;SDS011;6408;59.388;17.798;2024-01-30T03:43:34;19.70;;;4.33;;
12687;SDS011;6408;59.388;17.798;2024-01-30T03:46:02;31.83;;;5.23;;
12687;SDS011;6408;59.388;17.798;2024-01-30T03:48:31;39.83;;;6.27;;
12687;SDS011;6408;59.388;17.798;2024-01-30T03:50:58;56.60;;;7.17;;
12687;SDS011;6408;59.388;17.798;2024-01-30T03:53:26;29.63;;;5.13;;
12687;SDS011;6408;59.388;17.798;2024-01-30T03:55:53;43.00;;;6.90;;
12687;SDS011;6408;59.388;17.798;2024-01-30T03:58:23;38.13;;;5.90;;
12687;SDS011;6408;59.388;17.798;2024-01-30T04:00:52;77.07;;;6.33;;
12687;SDS011;6408;59.388;17.798;2024-01-30T04:03:19;58.03;;;7.10;;
12687;SDS011;6408;59.388;17.798;2024-01-30T04:05:48;46.93;;;5.97;;
12687;SDS011;6408;59.388;17.798;2024-01-30T04:08:16;34.37;;;6.80;;
12687;SDS011;6408;59.388;17.798;2024-01-30T04:10:44;39.90;;;4.43;;
12687;SDS011;6408;59.388;17.798;2024-01-30T04:13:13;50.40;;;6.43;;
12687;SDS011;6408;59.388;17.798;2024-01-30T04:15:45;34.77;;;4.80;;
12687;SDS011;6408;59.388;17.798;2024-01-30T04:18:12;29.50;;;5.23;;
12687;SDS011;6408;59.388;17.798;2024-01-30T04:20:39;39.97;;;5.13;;
12687;SDS011;6408;59.388;17.798;2024-01-30T04:23:08;32.70;;;6.10;;
12687;SDS011;6408;59.388;17.798;2024-01-30T04:25:36;25.83;;;4.80;;
12687;SDS011;6408;59.388;17.798;2024-01-30T04:28:04;28.40;;;5.30;;
12687;SDS011;6408;59.388;17.798;2024-01-30T04:30:31;24.10;;;5.20;;
12687;SDS011;6408;59.388;17.798;2024-01-30T04:32:58;24.93;;;5.00;;
12687;SDS011;6408;59.388;17.798;2024-01-30T04:35:25;20.80;;;4.23;;
12687;SDS011;6408;59.388;17.798;2024-01-30T04:37:53;8.87;;;3.83;;
12687;SDS011;6408;59.388;17.798;2024-01-30T04:41:06;7.47;;;3.80;;
12687;SDS011;6408;59.388;17.798;2024-01-30T04:44:36;16.40;;;4.07;;
12687;SDS011;6408;59.388;17.798;2024-01-30T04:46:57;19.50;;;3.93;;
12687;SDS011;6408;59.388;17.798;2024-01-30T04:49:27;7.07;;;3.13;;
12687;SDS011;6408;59.388;17.798;2024-01-30T04:51:56;5.07;;;3.60;;
12687;SDS011;6408;59.388;17.798;2024-01-30T04:54:28;8.00;;;4.03;;
12687;SDS011;6408;59.388;17.798;2024-01-30T04:56:59;15.53;;;4.30;;
12687;SDS011;6408;59.388;17.798;2024-01-30T04:59:33;7.70;;;4.90;;
12687;SDS011;6408;59.388;17.798;2024-01-30T05:02:13;11.00;;;5.03;;
12687;SDS011;6408;59.388;17.798;2024-01-30T05:04:42;15.50;;;5.20;;
12687;SDS011;6408;59.388;17.798;2024-01-30T05:07:16;16.13;;;5.10;;
12687;SDS011;6408;59.388;17.798;2024-01-30T05:12:29;10.50;;;4.93;;
12687;SDS011;6408;59.388;17.798;2024-01-30T05:14:56;10.93;;;5.10;;
12687;SDS011;6408;59.388;17.798;2024-01-30T05:17:23;8.97;;;4.87;;
12687;SDS011;6408;59.388;17.798;2024-01-30T05:19:54;15.87;;;5.50;;
12687;SDS011;6408;59.388;17.798;2024-01-30T05:22:21;15.57;;;5.33;;
12687;SDS011;6408;59.388;17.798;2024-01-30T05:24:49;10.40;;;5.97;;
12687;SDS011;6408;59.388;17.798;2024-01-30T05:27:16;15.43;;;5.30;;
12687;SDS011;6408;59.388;17.798;2024-01-30T05:29:45;14.80;;;5.97;;
12687;SDS011;6408;59.388;17.798;2024-01-30T05:32:12;10.23;;;5.30;;
12687;SDS011;6408;59.388;17.798;2024-01-30T05:34:39;10.87;;;4.80;;
12687;SDS011;6408;59.388;17.798;2024-01-30T05:37:07;8.43;;;5.07;;
12687;SDS011;6408;59.388;17.798;2024-01-30T05:39:34;51.17;;;7.93;;
12687;SDS011;6408;59.388;17.798;2024-01-30T05:42:03;13.63;;;5.07;;
12687;SDS011;6408;59.388;17.798;2024-01-30T05:44:31;20.07;;;5.60;;
12687;SDS011;6408;59.388;17.798;2024-01-30T05:47:07;9.67;;;5.00;;
12687;SDS011;6408;59.388;17.798;2024-01-30T05:49:37;11.43;;;3.90;;
12687;SDS011;6408;59.388;17.798;2024-01-30T05:52:07;11.93;;;4.03;;
12687;SDS011;6408;59.388;17.798;2024-01-30T05:54:37;8.60;;;3.20;;
12687;SDS011;6408;59.388;17.798;2024-01-30T05:57:06;14.80;;;3.53;;
12687;SDS011;6408;59.388;17.798;2024-01-30T05:59:35;7.33;;;3.00;;
12687;SDS011;6408;59.388;17.798;2024-01-30T06:02:11;18.73;;;4.10;;
12687;SDS011;6408;59.388;17.798;2024-01-30T06:05:07;11.47;;;3.70;;
12687;SDS011;6408;59.388;17.798;2024-01-30T06:07:36;13.90;;;3.87;;
12687;SDS011;6408;59.388;17.798;2024-01-30T06:10:05;12.90;;;3.77;;
12687;SDS011;6408;59.388;17.798;2024-01-30T06:12:44;13.00;;;4.00;;
12687;SDS011;6408;59.388;17.798;2024-01-30T06:15:26;28.90;;;4.37;;
12687;SDS011;6408;59.388;17.798;2024-01-30T06:18:01;16.43;;;4.17;;
12687;SDS011;6408;59.388;17.798;2024-01-30T06:20:29;26.27;;;4.50;;
12687;SDS011;6408;59.388;17.798;2024-01-30T06:22:59;21.53;;;4.90;;
12687;SDS011;6408;59.388;17.798;2024-01-30T06:25:27;18.27;;;4.73;;
12687;SDS011;6408;59.388;17.798;2024-01-30T06:28:02;22.03;;;5.20;;
12687;SDS011;6408;59.388;17.798;2024-01-30T06:30:32;16.90;;;5.33;;
12687;SDS011;6408;59.388;17.798;2024-01-30T06:33:03;15.20;;;4.30;;
12687;SDS011;6408;59.388;17.798;2024-01-30T06:35:37;6.50;;;4.57;;
12687;SDS011;6408;59.388;17.798;2024-01-30T06:38:10;15.23;;;4.10;;
12687;SDS011;6408;59.388;17.798;2024-01-30T06:40:40;16.73;;;4.40;;
12687;SDS011;6408;59.388;17.798;2024-01-30T06:43:09;7.47;;;3.67;;
12687;SDS011;6408;59.388;17.798;2024-01-30T06:45:40;10.53;;;4.40;;
12687;SDS011;6408;59.388;17.798;2024-01-30T06:48:09;6.37;;;4.17;;
12687;SDS011;6408;59.388;17.798;2024-01-30T06:50:37;22.30;;;4.63;;
12687;SDS011;6408;59.388;17.798;2024-01-30T06:53:04;37.17;;;5.17;;
12687;SDS011;6408;59.388;17.798;2024-01-30T06:55:44;14.40;;;4.07;;
12687;SDS011;6408;59.388;17.798;2024-01-30T06:58:12;9.90;;;4.33;;
12687;SDS011;6408;59.388;17.798;2024-01-30T07:00:40;19.07;;;4.87;;
12687;SDS011;6408;59.388;17.798;2024-01-30T07:03:10;9.77;;;4.10;;
12687;SDS011;6408;59.388;17.798;2024-01-30T07:05:38;12.13;;;4.27;;
12687;SDS011;6408;59.388;17.798;2024-01-30T07:08:05;6.90;;;3.90;;
12687;SDS011;6408;59.388;17.798;2024-01-30T07:10:33;9.47;;;4.47;;
12687;SDS011;6408;59.388;17.798;2024-01-30T07:13:18;10.10;;;4.33;;
12687;SDS011;6408;59.388;17.798;2024-01-30T07:15:54;11.73;;;4.40;;
12687;SDS011;6408;59.388;17.798;2024-01-30T07:18:23;8.93;;;4.43;;
12687;SDS011;6408;59.388;17.798;2024-01-30T07:20:53;7.90;;;4.23;;
12687;SDS011;6408;59.388;17.798;2024-01-30T07:23:20;9.87;;;5.00;;
12687;SDS011;6408;59.388;17.798;2024-01-30T07:25:47;12.83;;;6.67;;
12687;SDS011;6408;59.388;17.798;2024-01-30T07:28:15;9.60;;;6.17;;
12687;SDS011;6408;59.388;17.798;2024-01-30T07:30:46;18.53;;;6.13;;
12687;SDS011;6408;59.388;17.798;2024-01-30T07:33:15;16.23;;;6.27;;
12687;SDS011;6408;59.388;17.798;2024-01-30T07:35:46;9.43;;;5.73;;
12687;SDS011;6408;59.388;17.798;2024-01-30T07:38:14;8.43;;;5.03;;
12687;SDS011;6408;59.388;17.798;2024-01-30T07:40:45;6.90;;;4.53;;
12687;SDS011;6408;59.388;17.798;2024-01-30T07:43:16;15.07;;;5.30;;
12687;SDS011;6408;59.388;17.798;2024-01-30T07:45:43;39.13;;;7.50;;
12687;SDS011;6408;59.388;17.798;2024-01-30T07:48:10;43.53;;;6.97;;
12687;SDS011;6408;59.388;17.798;2024-01-30T07:50:37;8.17;;;4.83;;
12687;SDS011;6408;59.388;17.798;2024-01-30T07:53:08;38.73;;;6.67;;
12687;SDS011;6408;59.388;17.798;2024-01-30T07:55:36;27.70;;;7.83;;
12687;SDS011;6408;59.388;17.798;2024-01-30T07:58:23;9.33;;;5.70;;
12687;SDS011;6408;59.388;17.798;2024-01-30T08:00:53;6.70;;;4.93;;
12687;SDS011;6408;59.388;17.798;2024-01-30T08:03:23;7.70;;;4.90;;
12687;SDS011;6408;59.388;17.798;2024-01-30T08:05:50;8.07;;;5.00;;
12687;SDS011;6408;59.388;17.798;2024-01-30T08:08:19;8.27;;;5.23;;
12687;SDS011;6408;59.388;17.798;2024-01-30T08:10:47;6.83;;;4.67;;
12687;SDS011;6408;59.388;17.798;2024-01-30T08:13:15;7.47;;;4.50;;
12687;SDS011;6408;59.388;17.798;2024-01-30T08:15:41;6.47;;;4.23;;
12687;SDS011;6408;59.388;17.798;2024-01-30T08:18:08;7.53;;;4.47;;
12687;SDS011;6408;59.388;17.798;2024-01-30T08:20:35;8.13;;;4.10;;
12687;SDS011;6408;59.388;17.798;2024-01-30T08:23:02;7.23;;;4.43;;
12687;SDS011;6408;59.388;17.798;2024-01-30T08:25:31;7.10;;;3.83;;
12687;SDS011;6408;59.388;17.798;2024-01-30T08:28:16;6.83;;;4.23;;
12687;SDS011;6408;59.388;17.798;2024-01-30T08:30:46;5.63;;;4.13;;
12687;SDS011;6408;59.388;17.798;2024-01-30T08:33:13;5.83;;;4.13;;
12687;SDS011;6408;59.388;17.798;2024-01-30T08:35:40;6.10;;;4.03;;
12687;SDS011;6408;59.388;17.798;2024-01-30T08:38:07;8.17;;;4.37;;
12687;SDS011;6408;59.388;17.798;2024-01-30T08:40:35;7.00;;;4.60;;
12687;SDS011;6408;59.388;17.798;2024-01-30T08:43:02;6.67;;;4.60;;
12687;SDS011;6408;59.388;17.798;2024-01-30T08:45:29;7.77;;;4.93;;
12687;SDS011;6408;59.388;17.798;2024-01-30T08:47:56;8.70;;;4.80;;
12687;SDS011;6408;59.388;17.798;2024-01-30T08:50:25;8.70;;;5.00;;
12687;SDS011;6408;59.388;17.798;2024-01-30T08:52:52;8.57;;;5.30;;
12687;SDS011;6408;59.388;17.798;2024-01-30T08:55:19;10.60;;;5.43;;
12687;SDS011;6408;59.388;17.798;2024-01-30T08:57:48;8.17;;;5.03;;
12687;SDS011;6408;59.388;17.798;2024-01-30T09:00:15;9.93;;;5.47;;
12687;SDS011;6408;59.388;17.798;2024-01-30T09:02:43;7.40;;;5.07;;
12687;SDS011;6408;59.388;17.798;2024-01-30T09:05:10;7.50;;;4.47;;
12687;SDS011;6408;59.388;17.798;2024-01-30T09:07:37;9.17;;;5.27;;
12687;SDS011;6408;59.388;17.798;2024-01-30T09:10:06;9.43;;;5.33;;
12687;SDS011;6408;59.388;17.798;2024-01-30T09:12:36;9.90;;;5.77;;
12687;SDS011;6408;59.388;17.798;2024-01-30T09:15:06;11.87;;;7.13;;
12687;SDS011;6408;59.388;17.798;2024-01-30T09:17:35;13.63;;;6.60;;
12687;SDS011;6408;59.388;17.798;2024-01-30T09:20:01;8.37;;;6.13;;
12687;SDS011;6408;59.388;17.798;2024-01-30T09:22:28;8.37;;;5.67;;
12687;SDS011;6408;59.388;17.798;2024-01-30T09:24:56;9.23;;;5.47;;
12687;SDS011;6408;59.388;17.798;2024-01-30T09:27:23;11.80;;;6.10;;
12687;SDS011;6408;59.388;17.798;2024-01-30T09:29:50;10.83;;;5.63;;
12687;SDS011;6408;59.388;17.798;2024-01-30T09:32:19;10.60;;;6.30;;
12687;SDS011;6408;59.388;17.798;2024-01-30T09:34:46;11.73;;;5.97;;
12687;SDS011;6408;59.388;17.798;2024-01-30T09:37:13;10.90;;;5.60;;
12687;SDS011;6408;59.388;17.798;2024-01-30T09:39:43;9.53;;;5.40;;
12687;SDS011;6408;59.388;17.798;2024-01-30T09:42:11;11.47;;;5.97;;
12687;SDS011;6408;59.388;17.798;2024-01-30T09:44:44;9.43;;;5.77;;
12687;SDS011;6408;59.388;17.798;2024-01-30T09:47:13;14.00;;;6.83;;
12687;SDS011;6408;59.388;17.798;2024-01-30T09:49:44;12.10;;;6.53;;
12687;SDS011;6408;59.388;17.798;2024-01-30T09:52:12;12.17;;;5.87;;
12687;SDS011;6408;59.388;17.798;2024-01-30T09:54:39;13.27;;;6.30;;
12687;SDS011;6408;59.388;17.798;2024-01-30T09:57:07;14.03;;;7.60;;
12687;SDS011;6408;59.388;17.798;2024-01-30T09:59:34;12.53;;;6.67;;
12687;SDS011;6408;59.388;17.798;2024-01-30T10:02:02;12.97;;;6.23;;
12687;SDS011;6408;59.388;17.798;2024-01-30T10:04:31;11.63;;;6.23;;
12687;SDS011;6408;59.388;17.798;2024-01-30T10:07:01;10.27;;;6.53;;
12687;SDS011;6408;59.388;17.798;2024-01-30T10:09:31;14.10;;;7.00;;
12687;SDS011;6408;59.388;17.798;2024-01-30T10:11:59;10.13;;;6.27;;
12687;SDS011;6408;59.388;17.798;2024-01-30T10:14:28;11.80;;;6.33;;
12687;SDS011;6408;59.388;17.798;2024-01-30T10:16:57;14.17;;;6.57;;
12687;SDS011;6408;59.388;17.798;2024-01-30T10:19:24;14.47;;;6.67;;
12687;SDS011;6408;59.388;17.798;2024-01-30T10:21:52;15.20;;;7.70;;
12687;SDS011;6408;59.388;17.798;2024-01-30T10:24:25;17.77;;;7.53;;
12687;SDS011;6408;59.388;17.798;2024-01-30T10:26:53;18.33;;;6.93;;
12687;SDS011;6408;59.388;17.798;2024-01-30T10:29:20;19.07;;;8.30;;
12687;SDS011;6408;59.388;17.798;2024-01-30T10:31:56;15.87;;;7.43;;
12687;SDS011;6408;59.388;17.798;2024-01-30T10:34:26;14.17;;;7.10;;
12687;SDS011;6408;59.388;17.798;2024-01-30T10:36:58;14.40;;;7.00;;
12687;SDS011;6408;59.388;17.798;2024-01-30T10:39:33;18.10;;;7.23;;
12687;SDS011;6408;59.388;17.798;2024-01-30T10:42:04;17.40;;;7.87;;
12687;SDS011;6408;59.388;17.798;2024-01-30T10:44:43;18.13;;;7.67;;
12687;SDS011;6408;59.388;17.798;2024-01-30T10:47:21;14.57;;;6.93;;
12687;SDS011;6408;59.388;17.798;2024-01-30T10:49:54;17.07;;;7.77;;
12687;SDS011;6408;59.388;17.798;2024-01-30T10:52:22;20.20;;;8.17;;
12687;SDS011;6408;59.388;17.798;2024-01-30T10:54:54;18.17;;;7.40;;
12687;SDS011;6408;59.388;17.798;2024-01-30T10:57:22;16.27;;;8.00;;
12687;SDS011;6408;59.388;17.798;2024-01-30T10:59:50;17.97;;;7.93;;
12687;SDS011;6408;59.388;17.798;2024-01-30T11:02:24;15.80;;;8.20;;
12687;SDS011;6408;59.388;17.798;2024-01-30T11:04:55;15.53;;;7.20;;
12687;SDS011;6408;59.388;17.798;2024-01-30T11:07:24;18.30;;;8.77;;
12687;SDS011;6408;59.388;17.798;2024-01-30T11:09:54;17.07;;;8.07;;
12687;SDS011;6408;59.388;17.798;2024-01-30T11:12:27;19.43;;;8.30;;
12687;SDS011;6408;59.388;17.798;2024-01-30T11:15:01;15.73;;;8.30;;
12687;SDS011;6408;59.388;17.798;2024-01-30T11:17:39;16.93;;;8.40;;
12687;SDS011;6408;59.388;17.798;2024-01-30T11:20:09;18.30;;;8.43;;
12687;SDS011;6408;59.388;17.798;2024-01-30T11:22:40;15.47;;;8.30;;
12687;SDS011;6408;59.388;17.798;2024-01-30T11:25:12;17.10;;;8.70;;
12687;SDS011;6408;59.388;17.798;2024-01-30T11:27:41;18.57;;;8.47;;
12687;SDS011;6408;59.388;17.798;2024-01-30T11:30:07;20.33;;;8.70;;
12687;SDS011;6408;59.388;17.798;2024-01-30T11:32:35;19.10;;;8.93;;
12687;SDS011;6408;59.388;17.798;2024-01-30T11:35:03;17.73;;;9.10;;
12687;SDS011;6408;59.388;17.798;2024-01-30T11:37:36;17.40;;;8.77;;
12687;SDS011;6408;59.388;17.798;2024-01-30T11:40:05;17.83;;;9.60;;
12687;SDS011;6408;59.388;17.798;2024-01-30T11:42:35;19.47;;;8.63;;
12687;SDS011;6408;59.388;17.798;2024-01-30T11:45:05;18.23;;;9.40;;
12687;SDS011;6408;59.388;17.798;2024-01-30T11:47:34;19.13;;;9.20;;
12687;SDS011;6408;59.388;17.798;2024-01-30T11:50:03;21.20;;;9.27;;
12687;SDS011;6408;59.388;17.798;2024-01-30T11:52:31;20.93;;;10.50;;
12687;SDS011;6408;59.388;17.798;2024-01-30T11:54:59;20.43;;;9.23;;
12687;SDS011;6408;59.388;17.798;2024-01-30T11:57:27;26.83;;;10.10;;
12687;SDS011;6408;59.388;17.798;2024-01-30T11:59:57;24.27;;;10.30;;
12687;SDS011;6408;59.388;17.798;2024-01-30T12:02:24;22.53;;;9.37;;
12687;SDS011;6408;59.388;17.798;2024-01-30T12:04:51;24.07;;;10.17;;
12687;SDS011;6408;59.388;17.798;2024-01-30T12:07:18;20.77;;;10.07;;
12687;SDS011;6408;59.388;17.798;2024-01-30T12:09:51;23.17;;;11.30;;
12687;SDS011;6408;59.388;17.798;2024-01-30T12:12:19;21.30;;;9.07;;
12687;SDS011;6408;59.388;17.798;2024-01-30T12:14:49;20.37;;;10.37;;
12687;SDS011;6408;59.388;17.798;2024-01-30T12:17:25;23.43;;;9.57;;
12687;SDS011;6408;59.388;17.798;2024-01-30T12:20:02;18.07;;;9.47;;
12687;SDS011;6408;59.388;17.798;2024-01-30T12:22:31;21.23;;;10.50;;
12687;SDS011;6408;59.388;17.798;2024-01-30T12:25:00;20.87;;;10.40;;
12687;SDS011;6408;59.388;17.798;2024-01-30T12:27:28;18.13;;;9.37;;
12687;SDS011;6408;59.388;17.798;2024-01-30T12:29:56;20.17;;;10.00;;
12687;SDS011;6408;59.388;17.798;2024-01-30T12:32:24;19.63;;;10.13;;
12687;SDS011;6408;59.388;17.798;2024-01-30T12:34:54;23.63;;;10.57;;
12687;SDS011;6408;59.388;17.798;2024-01-30T12:37:22;20.17;;;9.70;;
12687;SDS011;6408;59.388;17.798;2024-01-30T12:39:51;24.90;;;11.10;;
12687;SDS011;6408;59.388;17.798;2024-01-30T12:42:20;20.43;;;11.77;;
12687;SDS011;6408;59.388;17.798;2024-01-30T12:44:47;22.73;;;10.43;;
12687;SDS011;6408;59.388;17.798;2024-01-30T12:47:15;18.47;;;9.90;;
12687;SDS011;6408;59.388;17.798;2024-01-30T12:49:44;17.27;;;10.00;;
12687;SDS011;6408;59.388;17.798;2024-01-30T12:52:13;20.77;;;10.43;;
12687;SDS011;6408;59.388;17.798;2024-01-30T12:54:40;27.30;;;11.00;;
12687;SDS011;6408;59.388;17.798;2024-01-30T12:57:07;23.20;;;10.50;;
12687;SDS011;6408;59.388;17.798;2024-01-30T12:59:35;21.07;;;10.47;;
12687;SDS011;6408;59.388;17.798;2024-01-30T13:02:03;21.63;;;9.80;;
12687;SDS011;6408;59.388;17.798;2024-01-30T13:04:30;19.93;;;9.87;;
12687;SDS011;6408;59.388;17.798;2024-01-30T13:06:59;21.80;;;10.43;;
12687;SDS011;6408;59.388;17.798;2024-01-30T13:09:29;21.90;;;11.63;;
12687;SDS011;6408;59.388;17.798;2024-01-30T13:11:56;21.33;;;11.10;;
12687;SDS011;6408;59.388;17.798;2024-01-30T13:14:37;20.77;;;10.13;;
12687;SDS011;6408;59.388;17.798;2024-01-30T13:17:04;23.53;;;11.23;;
12687;SDS011;6408;59.388;17.798;2024-01-30T13:19:35;17.40;;;9.40;;
12687;SDS011;6408;59.388;17.798;2024-01-30T13:22:04;17.57;;;9.57;;
12687;SDS011;6408;59.388;17.798;2024-01-30T13:24:34;19.80;;;10.43;;
12687;SDS011;6408;59.388;17.798;2024-01-30T13:27:01;16.50;;;9.23;;
12687;SDS011;6408;59.388;17.798;2024-01-30T13:29:32;17.47;;;8.90;;
12687;SDS011;6408;59.388;17.798;2024-01-30T13:32:05;17.33;;;10.03;;
12687;SDS011;6408;59.388;17.798;2024-01-30T13:34:36;17.30;;;9.53;;
12687;SDS011;6408;59.388;17.798;2024-01-30T13:37:17;14.47;;;9.17;;
12687;SDS011;6408;59.388;17.798;2024-01-30T13:40:03;18.80;;;9.00;;
12687;SDS011;6408;59.388;17.798;2024-01-30T13:42:43;17.07;;;9.67;;
12687;SDS011;6408;59.388;17.798;2024-01-30T13:45:27;14.70;;;8.00;;
12687;SDS011;6408;59.388;17.798;2024-01-30T13:48:22;13.07;;;8.33;;
12687;SDS011;6408;59.388;17.798;2024-01-30T13:51:14;16.00;;;8.77;;
12687;SDS011;6408;59.388;17.798;2024-01-30T13:53:50;13.83;;;8.57;;
12687;SDS011;6408;59.388;17.798;2024-01-30T13:56:19;14.10;;;8.73;;
12687;SDS011;6408;59.388;17.798;2024-01-30T13:58:53;12.80;;;9.13;;
12687;SDS011;6408;59.388;17.798;2024-01-30T14:04:01;15.30;;;8.30;;
12687;SDS011;6408;59.388;17.798;2024-01-30T14:06:33;18.17;;;9.30;;
12687;SDS011;6408;59.388;17.798;2024-01-30T14:09:10;13.47;;;8.47;;
12687;SDS011;6408;59.388;17.798;2024-01-30T14:11:41;13.23;;;8.50;;
12687;SDS011;6408;59.388;17.798;2024-01-30T14:14:35;13.00;;;8.03;;
12687;SDS011;6408;59.388;17.798;2024-01-30T14:17:10;13.83;;;8.97;;
12687;SDS011;6408;59.388;17.798;2024-01-30T14:19:38;12.50;;;7.63;;
12687;SDS011;6408;59.388;17.798;2024-01-30T14:22:06;15.70;;;8.07;;
12687;SDS011;6408;59.388;17.798;2024-01-30T14:24:37;13.80;;;8.20;;
12687;SDS011;6408;59.388;17.798;2024-01-30T14:27:16;14.57;;;8.87;;
12687;SDS011;6408;59.388;17.798;2024-01-30T14:29:53;15.50;;;9.40;;
12687;SDS011;6408;59.388;17.798;2024-01-30T14:32:38;14.97;;;9.43;;
12687;SDS011;6408;59.388;17.798;2024-01-30T14:35:06;15.27;;;10.17;;
12687;SDS011;6408;59.388;17.798;2024-01-30T14:37:39;14.43;;;9.43;;
12687;SDS011;6408;59.388;17.798;2024-01-30T14:40:21;16.87;;;10.33;;
12687;SDS011;6408;59.388;17.798;2024-01-30T14:42:48;15.70;;;10.47;;
12687;SDS011;6408;59.388;17.798;2024-01-30T14:45:16;14.53;;;9.87;;
12687;SDS011;6408;59.388;17.798;2024-01-30T14:47:44;16.30;;;8.87;;
12687;SDS011;6408;59.388;17.798;2024-01-30T14:50:11;11.73;;;8.30;;
12687;SDS011;6408;59.388;17.798;2024-01-30T14:52:41;11.80;;;7.70;;
12687;SDS011;6408;59.388;17.798;2024-01-30T14:55:08;13.90;;;7.47;;
12687;SDS011;6408;59.388;17.798;2024-01-30T14:57:37;13.80;;;7.47;;